sensor_id;sensor_type;location;lat;lon;timestamp;P1;durP1;ratioP1;P2;durP2;ratioP2
61127;SDS011;47013;42.664;23.242;2024-03-07T00:02:08;40.85;;;22.63;;
61127;SDS011;47013;42.664;23.242;2024-03-07T00:07:01;38.58;;;20.48;;
61127;SDS011;47013;42.664;23.242;2024-03-07T00:09:28;46.63;;;25.63;;
61127;SDS011;47013;42.664;23.242;2024-03-07T00:14:22;43.80;;;24.02;;
61127;SDS011;47013;42.664;23.242;2024-03-07T00:16:51;45.60;;;24.00;;
61127;SDS011;47013;42.664;23.242;2024-03-07T00:19:20;44.17;;;24.35;;
61127;SDS011;47013;42.664;23.242;2024-03-07T00:21:46;46.63;;;24.52;;
61127;SDS011;47013;42.664;23.242;2024-03-07T00:24:12;46.28;;;25.35;;
61127;SDS011;47013;42.664;23.242;2024-03-07T00:26:38;44.42;;;24.77;;
61127;SDS011;47013;42.664;23.242;2024-03-07T00:29:05;42.72;;;24.20;;
61127;SDS011;47013;42.664;23.242;2024-03-07T00:31:31;44.90;;;25.17;;
61127;SDS011;47013;42.664;23.242;2024-03-07T00:33:58;42.95;;;25.15;;
61127;SDS011;47013;42.664;23.242;2024-03-07T00:36:23;44.08;;;24.77;;
61127;SDS011;47013;42.664;23.242;2024-03-07T00:38:49;43.15;;;24.58;;
61127;SDS011;47013;42.664;23.242;2024-03-07T00:41:14;39.55;;;22.77;;
61127;SDS011;47013;42.664;23.242;2024-03-07T00:43:40;40.53;;;23.35;;
61127;SDS011;47013;42.664;23.242;2024-03-07T00:46:06;46.50;;;24.13;;
61127;SDS011;47013;42.664;23.242;2024-03-07T00:48:32;39.78;;;22.98;;
61127;SDS011;47013;42.664;23.242;2024-03-07T00:50:57;45.33;;;24.55;;
61127;SDS011;47013;42.664;23.242;2024-03-07T00:53:23;42.83;;;23.42;;
61127;SDS011;47013;42.664;23.242;2024-03-07T00:55:48;45.72;;;25.40;;
61127;SDS011;47013;42.664;23.242;2024-03-07T00:58:13;44.83;;;25.05;;
61127;SDS011;47013;42.664;23.242;2024-03-07T01:00:39;42.33;;;24.45;;
61127;SDS011;47013;42.664;23.242;2024-03-07T01:03:08;42.78;;;24.13;;
61127;SDS011;47013;42.664;23.242;2024-03-07T01:05:36;45.35;;;23.42;;
61127;SDS011;47013;42.664;23.242;2024-03-07T01:08:03;37.15;;;21.70;;
61127;SDS011;47013;42.664;23.242;2024-03-07T01:10:29;37.85;;;20.70;;
61127;SDS011;47013;42.664;23.242;2024-03-07T01:12:54;32.60;;;19.63;;
61127;SDS011;47013;42.664;23.242;2024-03-07T01:15:22;37.30;;;20.93;;
61127;SDS011;47013;42.664;23.242;2024-03-07T01:17:48;33.58;;;19.27;;
61127;SDS011;47013;42.664;23.242;2024-03-07T01:20:13;34.60;;;19.90;;
61127;SDS011;47013;42.664;23.242;2024-03-07T01:22:39;32.65;;;19.60;;
61127;SDS011;47013;42.664;23.242;2024-03-07T01:25:05;32.45;;;18.77;;
61127;SDS011;47013;42.664;23.242;2024-03-07T01:27:31;32.72;;;18.88;;
61127;SDS011;47013;42.664;23.242;2024-03-07T01:29:57;29.83;;;18.33;;
61127;SDS011;47013;42.664;23.242;2024-03-07T01:32:22;31.15;;;17.27;;
61127;SDS011;47013;42.664;23.242;2024-03-07T01:34:48;30.45;;;18.30;;
61127;SDS011;47013;42.664;23.242;2024-03-07T01:37:13;29.38;;;17.67;;
61127;SDS011;47013;42.664;23.242;2024-03-07T01:39:38;29.35;;;17.27;;
61127;SDS011;47013;42.664;23.242;2024-03-07T01:42:04;26.67;;;16.40;;
61127;SDS011;47013;42.664;23.242;2024-03-07T01:44:29;28.05;;;16.42;;
61127;SDS011;47013;42.664;23.242;2024-03-07T01:46:57;25.77;;;15.75;;
61127;SDS011;47013;42.664;23.242;2024-03-07T01:49:23;23.90;;;14.82;;
61127;SDS011;47013;42.664;23.242;2024-03-07T01:51:48;29.90;;;15.23;;
61127;SDS011;47013;42.664;23.242;2024-03-07T01:54:14;14.48;;;8.00;;
61127;SDS011;47013;42.664;23.242;2024-03-07T01:56:39;13.40;;;7.32;;
61127;SDS011;47013;42.664;23.242;2024-03-07T01:59:05;12.45;;;7.10;;
61127;SDS011;47013;42.664;23.242;2024-03-07T02:01:32;11.32;;;6.35;;
61127;SDS011;47013;42.664;23.242;2024-03-07T02:03:58;11.40;;;6.40;;
61127;SDS011;47013;42.664;23.242;2024-03-07T02:06:24;11.48;;;5.30;;
61127;SDS011;47013;42.664;23.242;2024-03-07T02:08:50;7.00;;;3.00;;
61127;SDS011;47013;42.664;23.242;2024-03-07T02:11:16;5.65;;;2.38;;
61127;SDS011;47013;42.664;23.242;2024-03-07T02:13:42;6.60;;;2.47;;
61127;SDS011;47013;42.664;23.242;2024-03-07T02:16:07;3.08;;;1.52;;
61127;SDS011;47013;42.664;23.242;2024-03-07T02:18:33;3.15;;;1.50;;
61127;SDS011;47013;42.664;23.242;2024-03-07T02:21:00;5.10;;;2.10;;
61127;SDS011;47013;42.664;23.242;2024-03-07T02:23:25;3.70;;;1.80;;
61127;SDS011;47013;42.664;23.242;2024-03-07T02:25:52;3.10;;;1.60;;
61127;SDS011;47013;42.664;23.242;2024-03-07T02:28:18;2.72;;;1.40;;
61127;SDS011;47013;42.664;23.242;2024-03-07T02:30:43;3.33;;;1.73;;
61127;SDS011;47013;42.664;23.242;2024-03-07T02:33:10;6.75;;;2.22;;
61127;SDS011;47013;42.664;23.242;2024-03-07T02:35:37;6.78;;;2.70;;
61127;SDS011;47013;42.664;23.242;2024-03-07T02:38:05;6.47;;;2.60;;
61127;SDS011;47013;42.664;23.242;2024-03-07T02:40:31;16.67;;;5.75;;
61127;SDS011;47013;42.664;23.242;2024-03-07T02:42:57;11.68;;;4.03;;
61127;SDS011;47013;42.664;23.242;2024-03-07T02:45:23;13.07;;;4.57;;
61127;SDS011;47013;42.664;23.242;2024-03-07T02:47:48;13.07;;;4.78;;
61127;SDS011;47013;42.664;23.242;2024-03-07T02:50:14;25.88;;;7.93;;
61127;SDS011;47013;42.664;23.242;2024-03-07T02:52:39;11.88;;;4.03;;
61127;SDS011;47013;42.664;23.242;2024-03-07T02:55:05;8.18;;;3.42;;
61127;SDS011;47013;42.664;23.242;2024-03-07T02:57:31;13.43;;;3.83;;
61127;SDS011;47013;42.664;23.242;2024-03-07T02:59:57;14.48;;;5.00;;
61127;SDS011;47013;42.664;23.242;2024-03-07T03:02:22;14.10;;;6.13;;
61127;SDS011;47013;42.664;23.242;2024-03-07T03:04:47;13.20;;;5.97;;
61127;SDS011;47013;42.664;23.242;2024-03-07T03:07:13;13.88;;;5.30;;
61127;SDS011;47013;42.664;23.242;2024-03-07T03:09:39;25.05;;;10.70;;
61127;SDS011;47013;42.664;23.242;2024-03-07T03:12:08;15.13;;;6.10;;
61127;SDS011;47013;42.664;23.242;2024-03-07T03:14:34;10.63;;;4.20;;
61127;SDS011;47013;42.664;23.242;2024-03-07T03:16:59;11.90;;;4.60;;
61127;SDS011;47013;42.664;23.242;2024-03-07T03:19:25;12.70;;;6.00;;
61127;SDS011;47013;42.664;23.242;2024-03-07T03:21:51;9.95;;;3.92;;
61127;SDS011;47013;42.664;23.242;2024-03-07T03:24:17;6.10;;;2.75;;
61127;SDS011;47013;42.664;23.242;2024-03-07T03:26:43;6.47;;;2.75;;
61127;SDS011;47013;42.664;23.242;2024-03-07T03:29:09;7.68;;;3.45;;
61127;SDS011;47013;42.664;23.242;2024-03-07T03:31:36;8.93;;;4.68;;
61127;SDS011;47013;42.664;23.242;2024-03-07T03:34:02;9.95;;;5.45;;
61127;SDS011;47013;42.664;23.242;2024-03-07T03:36:27;11.88;;;6.38;;
61127;SDS011;47013;42.664;23.242;2024-03-07T03:38:53;11.63;;;6.32;;
61127;SDS011;47013;42.664;23.242;2024-03-07T03:41:18;14.40;;;7.57;;
61127;SDS011;47013;42.664;23.242;2024-03-07T03:43:44;14.68;;;7.88;;
61127;SDS011;47013;42.664;23.242;2024-03-07T03:46:10;11.95;;;6.43;;
61127;SDS011;47013;42.664;23.242;2024-03-07T03:48:37;12.63;;;5.97;;
61127;SDS011;47013;42.664;23.242;2024-03-07T03:51:08;14.70;;;7.28;;
61127;SDS011;47013;42.664;23.242;2024-03-07T03:56:00;10.40;;;5.88;;
61127;SDS011;47013;42.664;23.242;2024-03-07T03:58:25;12.60;;;6.65;;
61127;SDS011;47013;42.664;23.242;2024-03-07T04:00:50;12.60;;;6.75;;
61127;SDS011;47013;42.664;23.242;2024-03-07T04:03:16;13.85;;;6.75;;
61127;SDS011;47013;42.664;23.242;2024-03-07T04:05:42;12.73;;;7.15;;
61127;SDS011;47013;42.664;23.242;2024-03-07T04:08:07;11.98;;;6.97;;
61127;SDS011;47013;42.664;23.242;2024-03-07T04:10:34;12.25;;;6.88;;
61127;SDS011;47013;42.664;23.242;2024-03-07T04:13:00;13.88;;;7.50;;
61127;SDS011;47013;42.664;23.242;2024-03-07T04:15:25;14.77;;;8.63;;
61127;SDS011;47013;42.664;23.242;2024-03-07T04:17:52;14.00;;;8.25;;
61127;SDS011;47013;42.664;23.242;2024-03-07T04:20:18;14.35;;;7.88;;
61127;SDS011;47013;42.664;23.242;2024-03-07T04:22:43;15.93;;;8.55;;
61127;SDS011;47013;42.664;23.242;2024-03-07T04:25:09;14.02;;;7.78;;
61127;SDS011;47013;42.664;23.242;2024-03-07T04:27:35;11.88;;;6.60;;
61127;SDS011;47013;42.664;23.242;2024-03-07T04:30:05;13.35;;;6.90;;
61127;SDS011;47013;42.664;23.242;2024-03-07T04:32:32;13.20;;;7.20;;
61127;SDS011;47013;42.664;23.242;2024-03-07T04:35:01;12.48;;;7.40;;
61127;SDS011;47013;42.664;23.242;2024-03-07T04:37:32;13.85;;;7.05;;
61127;SDS011;47013;42.664;23.242;2024-03-07T04:40:01;15.40;;;7.82;;
61127;SDS011;47013;42.664;23.242;2024-03-07T04:42:29;15.10;;;8.25;;
61127;SDS011;47013;42.664;23.242;2024-03-07T04:44:55;13.73;;;7.90;;
61127;SDS011;47013;42.664;23.242;2024-03-07T04:47:21;14.95;;;8.23;;
61127;SDS011;47013;42.664;23.242;2024-03-07T04:49:46;15.65;;;9.57;;
61127;SDS011;47013;42.664;23.242;2024-03-07T04:52:12;16.08;;;10.00;;
61127;SDS011;47013;42.664;23.242;2024-03-07T04:54:37;15.30;;;8.82;;
61127;SDS011;47013;42.664;23.242;2024-03-07T04:57:02;16.88;;;9.50;;
61127;SDS011;47013;42.664;23.242;2024-03-07T04:59:28;19.80;;;12.27;;
61127;SDS011;47013;42.664;23.242;2024-03-07T05:01:54;18.80;;;10.73;;
61127;SDS011;47013;42.664;23.242;2024-03-07T05:04:19;17.90;;;10.57;;
61127;SDS011;47013;42.664;23.242;2024-03-07T05:06:45;17.90;;;11.27;;
61127;SDS011;47013;42.664;23.242;2024-03-07T05:09:13;16.95;;;10.00;;
61127;SDS011;47013;42.664;23.242;2024-03-07T05:11:47;17.67;;;9.55;;
61127;SDS011;47013;42.664;23.242;2024-03-07T05:14:13;20.75;;;8.40;;
61127;SDS011;47013;42.664;23.242;2024-03-07T05:16:39;10.25;;;5.82;;
61127;SDS011;47013;42.664;23.242;2024-03-07T05:19:04;11.00;;;6.05;;
61127;SDS011;47013;42.664;23.242;2024-03-07T05:21:30;11.60;;;5.80;;
61127;SDS011;47013;42.664;23.242;2024-03-07T05:24:02;9.60;;;4.95;;
61127;SDS011;47013;42.664;23.242;2024-03-07T05:26:29;10.95;;;5.25;;
61127;SDS011;47013;42.664;23.242;2024-03-07T05:28:59;8.90;;;4.45;;
61127;SDS011;47013;42.664;23.242;2024-03-07T05:31:32;9.73;;;4.25;;
61127;SDS011;47013;42.664;23.242;2024-03-07T05:34:11;7.95;;;3.33;;
61127;SDS011;47013;42.664;23.242;2024-03-07T05:36:38;6.68;;;2.90;;
61127;SDS011;47013;42.664;23.242;2024-03-07T05:39:13;4.82;;;2.45;;
61127;SDS011;47013;42.664;23.242;2024-03-07T05:41:40;4.95;;;2.33;;
61127;SDS011;47013;42.664;23.242;2024-03-07T05:44:06;5.50;;;2.53;;
61127;SDS011;47013;42.664;23.242;2024-03-07T05:46:40;4.63;;;2.22;;
61127;SDS011;47013;42.664;23.242;2024-03-07T05:49:10;7.47;;;3.33;;
61127;SDS011;47013;42.664;23.242;2024-03-07T05:51:36;9.45;;;4.82;;
61127;SDS011;47013;42.664;23.242;2024-03-07T05:54:02;11.18;;;4.72;;
61127;SDS011;47013;42.664;23.242;2024-03-07T05:56:34;7.45;;;3.58;;
61127;SDS011;47013;42.664;23.242;2024-03-07T05:59:04;9.20;;;4.10;;
61127;SDS011;47013;42.664;23.242;2024-03-07T06:01:30;10.10;;;4.75;;
61127;SDS011;47013;42.664;23.242;2024-03-07T06:04:02;7.32;;;3.58;;
61127;SDS011;47013;42.664;23.242;2024-03-07T06:06:32;5.95;;;2.67;;
61127;SDS011;47013;42.664;23.242;2024-03-07T06:09:00;5.25;;;2.70;;
61127;SDS011;47013;42.664;23.242;2024-03-07T06:11:27;6.13;;;3.10;;
61127;SDS011;47013;42.664;23.242;2024-03-07T06:13:52;5.80;;;2.67;;
61127;SDS011;47013;42.664;23.242;2024-03-07T06:16:18;6.03;;;2.80;;
61127;SDS011;47013;42.664;23.242;2024-03-07T06:18:44;6.18;;;2.65;;
61127;SDS011;47013;42.664;23.242;2024-03-07T06:21:12;5.63;;;2.63;;
61127;SDS011;47013;42.664;23.242;2024-03-07T06:23:38;6.47;;;2.80;;
61127;SDS011;47013;42.664;23.242;2024-03-07T06:26:04;6.20;;;3.10;;
61127;SDS011;47013;42.664;23.242;2024-03-07T06:28:37;7.75;;;3.30;;
61127;SDS011;47013;42.664;23.242;2024-03-07T06:31:04;9.05;;;3.33;;
61127;SDS011;47013;42.664;23.242;2024-03-07T06:35:58;8.25;;;3.80;;
61127;SDS011;47013;42.664;23.242;2024-03-07T06:38:23;8.82;;;4.25;;
61127;SDS011;47013;42.664;23.242;2024-03-07T06:40:49;6.80;;;3.58;;
61127;SDS011;47013;42.664;23.242;2024-03-07T06:43:14;7.82;;;3.50;;
61127;SDS011;47013;42.664;23.242;2024-03-07T06:45:40;7.53;;;3.78;;
61127;SDS011;47013;42.664;23.242;2024-03-07T06:48:07;8.25;;;3.92;;
61127;SDS011;47013;42.664;23.242;2024-03-07T06:50:36;7.40;;;3.67;;
61127;SDS011;47013;42.664;23.242;2024-03-07T06:53:05;9.98;;;5.07;;
61127;SDS011;47013;42.664;23.242;2024-03-07T06:55:34;11.85;;;5.53;;
61127;SDS011;47013;42.664;23.242;2024-03-07T06:58:00;9.77;;;4.78;;
61127;SDS011;47013;42.664;23.242;2024-03-07T07:00:25;9.10;;;5.15;;
61127;SDS011;47013;42.664;23.242;2024-03-07T07:02:51;11.23;;;5.95;;
61127;SDS011;47013;42.664;23.242;2024-03-07T07:05:19;11.23;;;5.43;;
61127;SDS011;47013;42.664;23.242;2024-03-07T07:07:45;7.78;;;3.95;;
61127;SDS011;47013;42.664;23.242;2024-03-07T07:10:10;10.45;;;4.60;;
61127;SDS011;47013;42.664;23.242;2024-03-07T07:12:50;8.70;;;3.97;;
61127;SDS011;47013;42.664;23.242;2024-03-07T07:15:17;7.90;;;3.88;;
61127;SDS011;47013;42.664;23.242;2024-03-07T07:17:46;9.20;;;4.25;;
61127;SDS011;47013;42.664;23.242;2024-03-07T07:20:14;8.07;;;4.10;;
61127;SDS011;47013;42.664;23.242;2024-03-07T07:22:41;10.07;;;4.28;;
61127;SDS011;47013;42.664;23.242;2024-03-07T07:25:07;8.65;;;4.03;;
61127;SDS011;47013;42.664;23.242;2024-03-07T07:27:48;8.93;;;4.18;;
61127;SDS011;47013;42.664;23.242;2024-03-07T07:30:21;10.13;;;4.68;;
61127;SDS011;47013;42.664;23.242;2024-03-07T07:32:48;11.80;;;4.05;;
61127;SDS011;47013;42.664;23.242;2024-03-07T07:35:15;8.13;;;4.18;;
61127;SDS011;47013;42.664;23.242;2024-03-07T07:37:44;11.75;;;5.72;;
61127;SDS011;47013;42.664;23.242;2024-03-07T07:40:13;9.57;;;4.90;;
61127;SDS011;47013;42.664;23.242;2024-03-07T07:42:44;24.23;;;11.23;;
61127;SDS011;47013;42.664;23.242;2024-03-07T07:45:11;14.33;;;5.47;;
61127;SDS011;47013;42.664;23.242;2024-03-07T07:47:38;35.75;;;17.80;;
61127;SDS011;47013;42.664;23.242;2024-03-07T07:50:10;9.73;;;5.18;;
61127;SDS011;47013;42.664;23.242;2024-03-07T07:52:44;9.98;;;5.57;;
61127;SDS011;47013;42.664;23.242;2024-03-07T07:55:21;10.02;;;5.60;;
61127;SDS011;47013;42.664;23.242;2024-03-07T07:57:48;11.57;;;5.35;;
61127;SDS011;47013;42.664;23.242;2024-03-07T08:00:17;11.73;;;5.45;;
61127;SDS011;47013;42.664;23.242;2024-03-07T08:02:54;15.35;;;5.78;;
61127;SDS011;47013;42.664;23.242;2024-03-07T08:05:21;10.80;;;5.32;;
61127;SDS011;47013;42.664;23.242;2024-03-07T08:07:49;10.80;;;6.03;;
61127;SDS011;47013;42.664;23.242;2024-03-07T08:10:16;10.20;;;5.75;;
61127;SDS011;47013;42.664;23.242;2024-03-07T08:12:45;9.70;;;5.35;;
61127;SDS011;47013;42.664;23.242;2024-03-07T08:15:12;10.55;;;6.07;;
61127;SDS011;47013;42.664;23.242;2024-03-07T08:17:43;10.95;;;6.10;;
61127;SDS011;47013;42.664;23.242;2024-03-07T08:20:16;12.88;;;6.50;;
61127;SDS011;47013;42.664;23.242;2024-03-07T08:22:51;15.55;;;7.30;;
61127;SDS011;47013;42.664;23.242;2024-03-07T08:25:18;14.63;;;7.40;;
61127;SDS011;47013;42.664;23.242;2024-03-07T08:27:54;35.30;;;18.20;;
61127;SDS011;47013;42.664;23.242;2024-03-07T08:30:21;12.45;;;7.07;;
61127;SDS011;47013;42.664;23.242;2024-03-07T08:32:51;12.88;;;7.30;;
61127;SDS011;47013;42.664;23.242;2024-03-07T08:35:20;14.05;;;6.93;;
61127;SDS011;47013;42.664;23.242;2024-03-07T08:37:46;12.73;;;7.35;;
61127;SDS011;47013;42.664;23.242;2024-03-07T08:40:23;12.82;;;7.88;;
61127;SDS011;47013;42.664;23.242;2024-03-07T08:42:50;14.23;;;8.13;;
61127;SDS011;47013;42.664;23.242;2024-03-07T08:45:17;17.58;;;10.15;;
61127;SDS011;47013;42.664;23.242;2024-03-07T08:47:44;15.27;;;8.88;;
61127;SDS011;47013;42.664;23.242;2024-03-07T08:50:13;18.13;;;9.73;;
61127;SDS011;47013;42.664;23.242;2024-03-07T08:52:40;19.00;;;9.23;;
61127;SDS011;47013;42.664;23.242;2024-03-07T08:55:06;17.17;;;9.73;;
61127;SDS011;47013;42.664;23.242;2024-03-07T08:57:35;16.48;;;9.50;;
61127;SDS011;47013;42.664;23.242;2024-03-07T09:00:02;14.85;;;8.80;;
61127;SDS011;47013;42.664;23.242;2024-03-07T09:02:34;21.55;;;10.57;;
61127;SDS011;47013;42.664;23.242;2024-03-07T09:05:03;16.60;;;9.07;;
61127;SDS011;47013;42.664;23.242;2024-03-07T09:07:30;18.45;;;9.50;;
61127;SDS011;47013;42.664;23.242;2024-03-07T09:09:56;18.67;;;9.50;;
61127;SDS011;47013;42.664;23.242;2024-03-07T09:12:21;18.98;;;8.75;;
61127;SDS011;47013;42.664;23.242;2024-03-07T09:14:47;14.00;;;8.45;;
61127;SDS011;47013;42.664;23.242;2024-03-07T09:17:12;14.80;;;9.00;;
61127;SDS011;47013;42.664;23.242;2024-03-07T09:19:38;20.73;;;11.02;;
61127;SDS011;47013;42.664;23.242;2024-03-07T09:22:03;17.08;;;9.00;;
61127;SDS011;47013;42.664;23.242;2024-03-07T09:24:30;16.33;;;9.40;;
61127;SDS011;47013;42.664;23.242;2024-03-07T09:26:56;14.02;;;9.00;;
61127;SDS011;47013;42.664;23.242;2024-03-07T09:29:21;14.93;;;8.90;;
61127;SDS011;47013;42.664;23.242;2024-03-07T09:31:50;16.80;;;9.23;;
61127;SDS011;47013;42.664;23.242;2024-03-07T09:34:19;17.48;;;9.30;;
61127;SDS011;47013;42.664;23.242;2024-03-07T09:36:49;16.08;;;9.68;;
61127;SDS011;47013;42.664;23.242;2024-03-07T09:39:15;19.38;;;10.02;;
61127;SDS011;47013;42.664;23.242;2024-03-07T09:41:41;21.50;;;12.93;;
61127;SDS011;47013;42.664;23.242;2024-03-07T09:44:17;21.02;;;12.10;;
61127;SDS011;47013;42.664;23.242;2024-03-07T09:46:47;20.15;;;10.95;;
61127;SDS011;47013;42.664;23.242;2024-03-07T09:49:13;26.58;;;11.98;;
61127;SDS011;47013;42.664;23.242;2024-03-07T09:51:38;25.63;;;12.68;;
61127;SDS011;47013;42.664;23.242;2024-03-07T09:54:04;21.45;;;11.60;;
61127;SDS011;47013;42.664;23.242;2024-03-07T09:56:30;20.13;;;10.70;;
61127;SDS011;47013;42.664;23.242;2024-03-07T09:59:03;19.52;;;10.68;;
61127;SDS011;47013;42.664;23.242;2024-03-07T10:01:30;18.48;;;10.57;;
61127;SDS011;47013;42.664;23.242;2024-03-07T10:03:59;16.38;;;8.77;;
61127;SDS011;47013;42.664;23.242;2024-03-07T10:06:37;14.70;;;8.67;;
61127;SDS011;47013;42.664;23.242;2024-03-07T10:09:04;17.97;;;10.63;;
61127;SDS011;47013;42.664;23.242;2024-03-07T10:11:31;13.80;;;8.23;;
61127;SDS011;47013;42.664;23.242;2024-03-07T10:13:57;13.95;;;8.30;;
61127;SDS011;47013;42.664;23.242;2024-03-07T10:16:22;15.45;;;8.27;;
61127;SDS011;47013;42.664;23.242;2024-03-07T10:18:48;15.82;;;8.57;;
61127;SDS011;47013;42.664;23.242;2024-03-07T10:21:15;13.77;;;8.38;;
61127;SDS011;47013;42.664;23.242;2024-03-07T10:23:49;22.13;;;10.43;;
61127;SDS011;47013;42.664;23.242;2024-03-07T10:26:18;14.50;;;9.18;;
61127;SDS011;47013;42.664;23.242;2024-03-07T10:28:43;14.07;;;8.52;;
61127;SDS011;47013;42.664;23.242;2024-03-07T10:31:09;18.42;;;10.85;;
61127;SDS011;47013;42.664;23.242;2024-03-07T10:33:36;15.27;;;9.05;;
61127;SDS011;47013;42.664;23.242;2024-03-07T10:36:02;17.20;;;10.18;;
61127;SDS011;47013;42.664;23.242;2024-03-07T10:38:28;17.80;;;9.82;;
61127;SDS011;47013;42.664;23.242;2024-03-07T10:40:54;18.92;;;10.57;;
61127;SDS011;47013;42.664;23.242;2024-03-07T10:43:21;20.77;;;9.10;;
61127;SDS011;47013;42.664;23.242;2024-03-07T10:45:50;21.23;;;10.20;;
61127;SDS011;47013;42.664;23.242;2024-03-07T10:48:18;18.00;;;9.65;;
61127;SDS011;47013;42.664;23.242;2024-03-07T10:56:31;16.73;;;9.63;;
61127;SDS011;47013;42.664;23.242;2024-03-07T10:59:08;16.98;;;9.35;;
61127;SDS011;47013;42.664;23.242;2024-03-07T11:01:49;14.95;;;9.38;;
61127;SDS011;47013;42.664;23.242;2024-03-07T11:04:22;17.67;;;9.05;;
61127;SDS011;47013;42.664;23.242;2024-03-07T11:06:49;14.68;;;9.00;;
61127;SDS011;47013;42.664;23.242;2024-03-07T11:09:14;17.85;;;8.90;;
61127;SDS011;47013;42.664;23.242;2024-03-07T11:11:47;17.10;;;9.43;;
61127;SDS011;47013;42.664;23.242;2024-03-07T11:14:13;18.40;;;9.57;;
61127;SDS011;47013;42.664;23.242;2024-03-07T11:16:41;20.08;;;8.98;;
61127;SDS011;47013;42.664;23.242;2024-03-07T11:19:26;14.55;;;8.90;;
61127;SDS011;47013;42.664;23.242;2024-03-07T11:22:01;16.35;;;9.52;;
61127;SDS011;47013;42.664;23.242;2024-03-07T11:24:39;17.65;;;9.77;;
61127;SDS011;47013;42.664;23.242;2024-03-07T11:27:06;59.75;;;31.83;;
61127;SDS011;47013;42.664;23.242;2024-03-07T11:32:12;16.77;;;9.25;;
61127;SDS011;47013;42.664;23.242;2024-03-07T11:34:38;16.10;;;8.85;;
61127;SDS011;47013;42.664;23.242;2024-03-07T11:37:06;14.35;;;8.30;;
61127;SDS011;47013;42.664;23.242;2024-03-07T11:39:42;13.95;;;8.15;;
61127;SDS011;47013;42.664;23.242;2024-03-07T11:42:08;13.07;;;6.68;;
61127;SDS011;47013;42.664;23.242;2024-03-07T11:44:34;10.90;;;6.32;;
61127;SDS011;47013;42.664;23.242;2024-03-07T11:47:01;15.43;;;6.15;;
61127;SDS011;47013;42.664;23.242;2024-03-07T11:49:34;12.27;;;6.13;;
61127;SDS011;47013;42.664;23.242;2024-03-07T11:52:01;10.95;;;5.68;;
61127;SDS011;47013;42.664;23.242;2024-03-07T11:54:41;10.38;;;5.43;;
61127;SDS011;47013;42.664;23.242;2024-03-07T11:57:11;10.60;;;5.35;;
61127;SDS011;47013;42.664;23.242;2024-03-07T11:59:51;11.07;;;5.40;;
61127;SDS011;47013;42.664;23.242;2024-03-07T12:02:17;10.27;;;5.15;;
61127;SDS011;47013;42.664;23.242;2024-03-07T12:04:49;10.27;;;5.15;;
61127;SDS011;47013;42.664;23.242;2024-03-07T12:09:42;12.32;;;5.47;;
61127;SDS011;47013;42.664;23.242;2024-03-07T12:12:15;11.07;;;5.53;;
61127;SDS011;47013;42.664;23.242;2024-03-07T12:14:42;11.25;;;6.25;;
61127;SDS011;47013;42.664;23.242;2024-03-07T12:17:07;15.25;;;5.85;;
61127;SDS011;47013;42.664;23.242;2024-03-07T12:19:34;11.38;;;5.43;;
61127;SDS011;47013;42.664;23.242;2024-03-07T12:22:03;66.93;;;30.85;;
61127;SDS011;47013;42.664;23.242;2024-03-07T12:24:29;12.25;;;6.22;;
61127;SDS011;47013;42.664;23.242;2024-03-07T12:27:11;13.80;;;7.05;;
61127;SDS011;47013;42.664;23.242;2024-03-07T12:29:41;10.27;;;5.78;;
61127;SDS011;47013;42.664;23.242;2024-03-07T12:32:07;9.93;;;5.80;;
61127;SDS011;47013;42.664;23.242;2024-03-07T12:34:36;12.85;;;5.78;;
61127;SDS011;47013;42.664;23.242;2024-03-07T12:37:05;13.30;;;6.18;;
61127;SDS011;47013;42.664;23.242;2024-03-07T12:39:34;10.52;;;6.00;;
61127;SDS011;47013;42.664;23.242;2024-03-07T12:42:03;14.80;;;6.32;;
61127;SDS011;47013;42.664;23.242;2024-03-07T12:44:39;12.57;;;6.70;;
61127;SDS011;47013;42.664;23.242;2024-03-07T12:47:11;10.85;;;5.80;;
61127;SDS011;47013;42.664;23.242;2024-03-07T12:49:38;12.93;;;5.15;;
61127;SDS011;47013;42.664;23.242;2024-03-07T12:52:04;13.00;;;5.70;;
61127;SDS011;47013;42.664;23.242;2024-03-07T12:54:30;10.82;;;5.03;;
61127;SDS011;47013;42.664;23.242;2024-03-07T12:56:56;13.93;;;4.93;;
61127;SDS011;47013;42.664;23.242;2024-03-07T12:59:21;22.05;;;11.77;;
61127;SDS011;47013;42.664;23.242;2024-03-07T13:01:49;11.27;;;6.13;;
61127;SDS011;47013;42.664;23.242;2024-03-07T13:04:15;11.63;;;5.53;;
61127;SDS011;47013;42.664;23.242;2024-03-07T13:06:41;11.77;;;6.15;;
61127;SDS011;47013;42.664;23.242;2024-03-07T13:09:11;14.40;;;7.90;;
61127;SDS011;47013;42.664;23.242;2024-03-07T13:11:39;13.95;;;7.40;;
61127;SDS011;47013;42.664;23.242;2024-03-07T13:14:12;17.80;;;6.28;;
61127;SDS011;47013;42.664;23.242;2024-03-07T13:16:38;10.57;;;3.88;;
61127;SDS011;47013;42.664;23.242;2024-03-07T13:19:04;7.70;;;2.70;;
61127;SDS011;47013;42.664;23.242;2024-03-07T13:21:32;6.35;;;2.60;;
61127;SDS011;47013;42.664;23.242;2024-03-07T13:24:00;5.47;;;2.30;;
61127;SDS011;47013;42.664;23.242;2024-03-07T13:26:26;6.22;;;2.40;;
61127;SDS011;47013;42.664;23.242;2024-03-07T13:28:55;7.97;;;2.97;;
61127;SDS011;47013;42.664;23.242;2024-03-07T13:31:21;4.75;;;2.30;;
61127;SDS011;47013;42.664;23.242;2024-03-07T13:33:47;4.93;;;2.10;;
61127;SDS011;47013;42.664;23.242;2024-03-07T13:36:16;8.85;;;2.90;;
61127;SDS011;47013;42.664;23.242;2024-03-07T13:38:47;7.70;;;2.85;;
61127;SDS011;47013;42.664;23.242;2024-03-07T13:41:23;6.82;;;2.80;;
61127;SDS011;47013;42.664;23.242;2024-03-07T13:43:50;5.40;;;2.20;;
61127;SDS011;47013;42.664;23.242;2024-03-07T13:46:16;6.38;;;2.85;;
61127;SDS011;47013;42.664;23.242;2024-03-07T13:48:43;8.65;;;3.47;;
61127;SDS011;47013;42.664;23.242;2024-03-07T13:51:09;6.72;;;2.72;;
61127;SDS011;47013;42.664;23.242;2024-03-07T13:53:35;7.72;;;3.40;;
61127;SDS011;47013;42.664;23.242;2024-03-07T14:24:31;8.75;;;4.30;;
61127;SDS011;47013;42.664;23.242;2024-03-07T14:30:05;11.77;;;5.85;;
61127;SDS011;47013;42.664;23.242;2024-03-07T14:32:37;14.25;;;6.32;;
61127;SDS011;47013;42.664;23.242;2024-03-07T14:35:22;13.35;;;7.00;;
61127;SDS011;47013;42.664;23.242;2024-03-07T14:40:19;14.80;;;7.17;;
61127;SDS011;47013;42.664;23.242;2024-03-07T14:42:47;15.85;;;8.52;;
61127;SDS011;47013;42.664;23.242;2024-03-07T14:45:21;20.25;;;9.38;;
61127;SDS011;47013;42.664;23.242;2024-03-07T14:47:50;15.40;;;8.70;;
61127;SDS011;47013;42.664;23.242;2024-03-07T14:52:45;18.17;;;10.10;;
61127;SDS011;47013;42.664;23.242;2024-03-07T14:55:12;19.63;;;10.50;;
61127;SDS011;47013;42.664;23.242;2024-03-07T14:57:44;18.27;;;9.50;;
61127;SDS011;47013;42.664;23.242;2024-03-07T15:00:10;18.80;;;10.18;;
61127;SDS011;47013;42.664;23.242;2024-03-07T15:02:47;17.92;;;10.25;;
61127;SDS011;47013;42.664;23.242;2024-03-07T15:05:14;21.08;;;11.02;;
61127;SDS011;47013;42.664;23.242;2024-03-07T15:07:41;22.30;;;12.23;;
61127;SDS011;47013;42.664;23.242;2024-03-07T15:10:14;23.42;;;12.02;;
61127;SDS011;47013;42.664;23.242;2024-03-07T15:12:46;23.00;;;13.43;;
61127;SDS011;47013;42.664;23.242;2024-03-07T15:15:15;16.98;;;9.55;;
61127;SDS011;47013;42.664;23.242;2024-03-07T15:17:44;18.38;;;9.30;;
61127;SDS011;47013;42.664;23.242;2024-03-07T15:20:10;17.35;;;9.00;;
61127;SDS011;47013;42.664;23.242;2024-03-07T15:22:52;14.65;;;8.82;;